Norfolk, Virginia
Traffic Map
Current Weather Conditions
Norfolk, Virginia
Scattered Clouds
Scattered Clouds
41°
Feels Like: 36°
Wind Chill: 36° Ceiling: Unl
Heat Index: 41° Visibility: 10mi
Dew Point: 23° Wind: 8mph
Humidity: 49% Direction: 350° (N)
Pressure: 30.04in Gusts: 0mph
Raw Report DataKORF 302151Z AUTO 35007KT 310V010 10SM SCT065 05/M05 A3004 RMK AO2 SLP173 T00501050 TSNO
Traffic Incident Summary
Active as of:
Severity:
Category:
InformationThere was an issue retrieving the traffic information for this location. Please try a different location or try again shortly.
Advertisements
Track Severe Weather on mobile